sensor_id;sensor_type;location;lat;lon;timestamp;P1;durP1;ratioP1;P2;durP2;ratioP2
66609;SDS011;53468;48.276;14.416;2023-01-24T00:03:26;31.63;;;16.38;;
66609;SDS011;53468;48.276;14.416;2023-01-24T00:08:30;30.35;;;15.75;;
66609;SDS011;53468;48.276;14.416;2023-01-24T00:13:33;31.83;;;16.40;;
66609;SDS011;53468;48.276;14.416;2023-01-24T00:18:36;32.35;;;15.55;;
66609;SDS011;53468;48.276;14.416;2023-01-24T00:23:39;28.92;;;15.30;;
66609;SDS011;53468;48.276;14.416;2023-01-24T00:28:42;32.63;;;14.70;;
66609;SDS011;53468;48.276;14.416;2023-01-24T00:33:45;32.60;;;16.13;;
66609;SDS011;53468;48.276;14.416;2023-01-24T00:38:48;26.63;;;14.48;;
66609;SDS011;53468;48.276;14.416;2023-01-24T00:43:50;36.80;;;16.60;;
66609;SDS011;53468;48.276;14.416;2023-01-24T00:48:52;28.60;;;14.65;;
66609;SDS011;53468;48.276;14.416;2023-01-24T00:53:55;31.30;;;14.77;;
66609;SDS011;53468;48.276;14.416;2023-01-24T00:58:57;30.08;;;14.95;;
66609;SDS011;53468;48.276;14.416;2023-01-24T01:03:59;29.63;;;14.45;;
66609;SDS011;53468;48.276;14.416;2023-01-24T01:09:03;29.98;;;14.68;;
66609;SDS011;53468;48.276;14.416;2023-01-24T01:14:05;28.60;;;13.55;;
66609;SDS011;53468;48.276;14.416;2023-01-24T01:19:08;30.27;;;16.38;;
66609;SDS011;53468;48.276;14.416;2023-01-24T01:24:12;28.88;;;13.82;;
66609;SDS011;53468;48.276;14.416;2023-01-24T01:29:14;22.10;;;12.88;;
66609;SDS011;53468;48.276;14.416;2023-01-24T01:34:16;27.38;;;14.05;;
66609;SDS011;53468;48.276;14.416;2023-01-24T01:39:19;24.10;;;12.82;;
66609;SDS011;53468;48.276;14.416;2023-01-24T01:44:22;28.35;;;14.25;;
66609;SDS011;53468;48.276;14.416;2023-01-24T01:49:41;24.10;;;13.60;;
66609;SDS011;53468;48.276;14.416;2023-01-24T01:54:47;31.10;;;13.85;;
66609;SDS011;53468;48.276;14.416;2023-01-24T01:59:51;29.55;;;14.02;;
66609;SDS011;53468;48.276;14.416;2023-01-24T02:04:58;32.40;;;15.52;;
66609;SDS011;53468;48.276;14.416;2023-01-24T02:10:05;24.77;;;13.15;;
66609;SDS011;53468;48.276;14.416;2023-01-24T02:15:09;28.95;;;14.90;;
66609;SDS011;53468;48.276;14.416;2023-01-24T02:20:36;24.15;;;12.32;;
66609;SDS011;53468;48.276;14.416;2023-01-24T02:25:42;27.63;;;14.68;;
66609;SDS011;53468;48.276;14.416;2023-01-24T02:30:50;25.60;;;14.85;;
66609;SDS011;53468;48.276;14.416;2023-01-24T02:35:56;37.25;;;16.90;;
66609;SDS011;53468;48.276;14.416;2023-01-24T02:46:18;30.02;;;14.85;;
66609;SDS011;53468;48.276;14.416;2023-01-24T02:51:20;33.95;;;16.15;;
66609;SDS011;53468;48.276;14.416;2023-01-24T02:56:40;31.00;;;14.63;;
66609;SDS011;53468;48.276;14.416;2023-01-24T03:02:02;31.33;;;14.80;;
66609;SDS011;53468;48.276;14.416;2023-01-24T03:07:04;25.83;;;13.38;;
66609;SDS011;53468;48.276;14.416;2023-01-24T03:12:06;26.95;;;14.43;;
66609;SDS011;53468;48.276;14.416;2023-01-24T03:17:27;28.38;;;13.57;;
66609;SDS011;53468;48.276;14.416;2023-01-24T03:22:50;28.30;;;13.93;;
66609;SDS011;53468;48.276;14.416;2023-01-24T03:28:09;26.52;;;13.82;;
66609;SDS011;53468;48.276;14.416;2023-01-24T03:33:30;28.00;;;13.77;;
66609;SDS011;53468;48.276;14.416;2023-01-24T03:38:49;29.00;;;12.98;;
66609;SDS011;53468;48.276;14.416;2023-01-24T03:44:09;25.85;;;12.60;;
66609;SDS011;53468;48.276;14.416;2023-01-24T03:49:13;27.10;;;13.90;;
66609;SDS011;53468;48.276;14.416;2023-01-24T03:54:16;30.70;;;14.98;;
66609;SDS011;53468;48.276;14.416;2023-01-24T03:59:18;23.67;;;12.48;;
66609;SDS011;53468;48.276;14.416;2023-01-24T04:04:22;29.33;;;13.48;;
66609;SDS011;53468;48.276;14.416;2023-01-24T04:09:44;27.30;;;13.95;;
66609;SDS011;53468;48.276;14.416;2023-01-24T04:14:46;30.65;;;15.02;;
66609;SDS011;53468;48.276;14.416;2023-01-24T04:19:49;26.63;;;13.77;;
66609;SDS011;53468;48.276;14.416;2023-01-24T04:24:51;26.98;;;13.52;;
66609;SDS011;53468;48.276;14.416;2023-01-24T04:29:53;26.88;;;13.43;;
66609;SDS011;53468;48.276;14.416;2023-01-24T04:34:57;23.42;;;12.57;;
66609;SDS011;53468;48.276;14.416;2023-01-24T04:39:59;23.85;;;11.65;;
66609;SDS011;53468;48.276;14.416;2023-01-24T04:45:01;27.95;;;13.55;;
66609;SDS011;53468;48.276;14.416;2023-01-24T04:50:05;25.65;;;13.13;;
66609;SDS011;53468;48.276;14.416;2023-01-24T04:55:08;22.48;;;12.90;;
66609;SDS011;53468;48.276;14.416;2023-01-24T05:00:11;22.55;;;13.07;;
66609;SDS011;53468;48.276;14.416;2023-01-24T05:05:15;28.73;;;13.95;;
66609;SDS011;53468;48.276;14.416;2023-01-24T05:10:17;26.17;;;13.55;;
66609;SDS011;53468;48.276;14.416;2023-01-24T05:15:21;26.40;;;13.25;;
66609;SDS011;53468;48.276;14.416;2023-01-24T05:20:24;27.33;;;14.80;;
66609;SDS011;53468;48.276;14.416;2023-01-24T05:25:26;27.30;;;14.18;;
66609;SDS011;53468;48.276;14.416;2023-01-24T05:30:29;29.85;;;14.93;;
66609;SDS011;53468;48.276;14.416;2023-01-24T05:35:32;26.13;;;14.40;;
66609;SDS011;53468;48.276;14.416;2023-01-24T05:40:34;28.98;;;14.15;;
66609;SDS011;53468;48.276;14.416;2023-01-24T05:45:36;31.30;;;14.70;;
66609;SDS011;53468;48.276;14.416;2023-01-24T05:50:39;32.67;;;15.02;;
66609;SDS011;53468;48.276;14.416;2023-01-24T05:55:41;28.52;;;14.90;;
66609;SDS011;53468;48.276;14.416;2023-01-24T06:00:43;31.15;;;13.98;;
66609;SDS011;53468;48.276;14.416;2023-01-24T06:05:47;27.20;;;13.52;;
66609;SDS011;53468;48.276;14.416;2023-01-24T06:10:50;31.55;;;14.82;;
66609;SDS011;53468;48.276;14.416;2023-01-24T06:15:55;26.27;;;14.07;;
66609;SDS011;53468;48.276;14.416;2023-01-24T06:21:07;27.77;;;14.80;;
66609;SDS011;53468;48.276;14.416;2023-01-24T06:26:16;25.65;;;13.50;;
66609;SDS011;53468;48.276;14.416;2023-01-24T06:31:21;27.17;;;13.90;;
66609;SDS011;53468;48.276;14.416;2023-01-24T06:36:36;28.20;;;14.15;;
66609;SDS011;53468;48.276;14.416;2023-01-24T06:41:44;25.67;;;14.07;;
66609;SDS011;53468;48.276;14.416;2023-01-24T06:46:46;28.17;;;13.82;;
66609;SDS011;53468;48.276;14.416;2023-01-24T06:51:50;25.20;;;14.68;;
66609;SDS011;53468;48.276;14.416;2023-01-24T06:56:52;25.73;;;14.05;;
66609;SDS011;53468;48.276;14.416;2023-01-24T07:01:54;25.15;;;13.38;;
66609;SDS011;53468;48.276;14.416;2023-01-24T07:06:57;25.85;;;13.18;;
66609;SDS011;53468;48.276;14.416;2023-01-24T07:11:59;24.23;;;13.70;;
66609;SDS011;53468;48.276;14.416;2023-01-24T07:17:01;24.98;;;13.43;;
66609;SDS011;53468;48.276;14.416;2023-01-24T07:22:08;27.52;;;14.02;;
66609;SDS011;53468;48.276;14.416;2023-01-24T07:27:12;25.98;;;13.20;;
66609;SDS011;53468;48.276;14.416;2023-01-24T07:32:15;23.35;;;11.60;;
66609;SDS011;53468;48.276;14.416;2023-01-24T07:37:18;29.83;;;14.65;;
66609;SDS011;53468;48.276;14.416;2023-01-24T07:42:23;28.80;;;14.50;;
66609;SDS011;53468;48.276;14.416;2023-01-24T07:47:26;27.88;;;15.38;;
66609;SDS011;53468;48.276;14.416;2023-01-24T07:52:29;25.60;;;13.98;;
66609;SDS011;53468;48.276;14.416;2023-01-24T07:57:31;26.73;;;14.82;;
66609;SDS011;53468;48.276;14.416;2023-01-24T08:02:34;27.20;;;13.85;;
66609;SDS011;53468;48.276;14.416;2023-01-24T08:07:37;30.30;;;14.15;;
66609;SDS011;53468;48.276;14.416;2023-01-24T08:12:40;29.73;;;14.77;;
66609;SDS011;53468;48.276;14.416;2023-01-24T08:17:42;27.55;;;13.98;;
66609;SDS011;53468;48.276;14.416;2023-01-24T08:22:48;28.65;;;15.57;;
66609;SDS011;53468;48.276;14.416;2023-01-24T08:27:55;25.55;;;14.00;;
66609;SDS011;53468;48.276;14.416;2023-01-24T08:33:00;31.33;;;16.77;;
66609;SDS011;53468;48.276;14.416;2023-01-24T08:38:05;26.17;;;14.75;;
66609;SDS011;53468;48.276;14.416;2023-01-24T08:43:07;33.33;;;16.65;;
66609;SDS011;53468;48.276;14.416;2023-01-24T08:48:09;32.85;;;15.52;;
66609;SDS011;53468;48.276;14.416;2023-01-24T08:53:13;31.90;;;15.02;;
66609;SDS011;53468;48.276;14.416;2023-01-24T08:58:15;31.35;;;15.50;;
66609;SDS011;53468;48.276;14.416;2023-01-24T09:03:18;29.70;;;16.58;;
66609;SDS011;53468;48.276;14.416;2023-01-24T09:08:21;28.38;;;15.48;;
66609;SDS011;53468;48.276;14.416;2023-01-24T09:13:23;28.58;;;15.27;;
66609;SDS011;53468;48.276;14.416;2023-01-24T09:18:25;32.33;;;15.32;;
66609;SDS011;53468;48.276;14.416;2023-01-24T09:23:29;37.33;;;17.02;;
66609;SDS011;53468;48.276;14.416;2023-01-24T09:28:31;35.38;;;17.02;;
66609;SDS011;53468;48.276;14.416;2023-01-24T09:33:34;36.95;;;17.98;;
66609;SDS011;53468;48.276;14.416;2023-01-24T09:38:37;33.75;;;17.05;;
66609;SDS011;53468;48.276;14.416;2023-01-24T09:43:43;33.30;;;15.32;;
66609;SDS011;53468;48.276;14.416;2023-01-24T09:48:52;40.65;;;17.23;;
66609;SDS011;53468;48.276;14.416;2023-01-24T09:54:03;32.95;;;17.02;;
66609;SDS011;53468;48.276;14.416;2023-01-24T09:59:12;36.78;;;18.08;;
66609;SDS011;53468;48.276;14.416;2023-01-24T10:04:20;35.85;;;16.80;;
66609;SDS011;53468;48.276;14.416;2023-01-24T10:09:30;36.00;;;18.02;;
66609;SDS011;53468;48.276;14.416;2023-01-24T10:14:42;36.45;;;17.48;;
66609;SDS011;53468;48.276;14.416;2023-01-24T10:19:53;32.30;;;17.42;;
66609;SDS011;53468;48.276;14.416;2023-01-24T10:25:21;34.55;;;16.70;;
66609;SDS011;53468;48.276;14.416;2023-01-24T10:30:28;34.17;;;15.88;;
66609;SDS011;53468;48.276;14.416;2023-01-24T10:35:47;35.33;;;16.92;;
66609;SDS011;53468;48.276;14.416;2023-01-24T10:40:58;37.67;;;17.60;;
66609;SDS011;53468;48.276;14.416;2023-01-24T10:46:19;29.55;;;17.35;;
66609;SDS011;53468;48.276;14.416;2023-01-24T10:51:35;37.30;;;17.40;;
66609;SDS011;53468;48.276;14.416;2023-01-24T10:56:39;34.72;;;17.50;;
66609;SDS011;53468;48.276;14.416;2023-01-24T11:01:42;35.33;;;17.38;;
66609;SDS011;53468;48.276;14.416;2023-01-24T11:06:47;39.22;;;18.20;;
66609;SDS011;53468;48.276;14.416;2023-01-24T11:11:53;36.08;;;17.65;;
66609;SDS011;53468;48.276;14.416;2023-01-24T11:16:57;35.25;;;17.42;;
66609;SDS011;53468;48.276;14.416;2023-01-24T11:22:02;36.28;;;17.42;;
66609;SDS011;53468;48.276;14.416;2023-01-24T11:27:21;37.88;;;18.38;;
66609;SDS011;53468;48.276;14.416;2023-01-24T11:32:26;42.50;;;18.63;;
66609;SDS011;53468;48.276;14.416;2023-01-24T11:48:52;40.65;;;18.25;;
66609;SDS011;53468;48.276;14.416;2023-01-24T11:54:04;33.55;;;16.60;;
66609;SDS011;53468;48.276;14.416;2023-01-24T11:59:24;35.00;;;17.20;;
66609;SDS011;53468;48.276;14.416;2023-01-24T12:04:47;34.95;;;16.17;;
66609;SDS011;53468;48.276;14.416;2023-01-24T12:10:07;38.15;;;17.95;;
66609;SDS011;53468;48.276;14.416;2023-01-24T12:15:22;44.35;;;19.90;;
66609;SDS011;53468;48.276;14.416;2023-01-24T12:20:37;40.15;;;16.55;;
66609;SDS011;53468;48.276;14.416;2023-01-24T12:25:55;36.83;;;19.17;;
66609;SDS011;53468;48.276;14.416;2023-01-24T12:31:03;34.95;;;19.70;;
66609;SDS011;53468;48.276;14.416;2023-01-24T12:36:09;33.58;;;17.67;;
66609;SDS011;53468;48.276;14.416;2023-01-24T12:41:18;40.10;;;17.70;;
66609;SDS011;53468;48.276;14.416;2023-01-24T12:46:33;38.53;;;15.82;;
66609;SDS011;53468;48.276;14.416;2023-01-24T12:51:40;34.05;;;17.15;;
66609;SDS011;53468;48.276;14.416;2023-01-24T12:56:47;33.55;;;15.82;;
66609;SDS011;53468;48.276;14.416;2023-01-24T13:02:06;31.52;;;17.30;;
66609;SDS011;53468;48.276;14.416;2023-01-24T13:07:23;29.13;;;16.38;;
66609;SDS011;53468;48.276;14.416;2023-01-24T13:12:32;34.38;;;17.25;;
66609;SDS011;53468;48.276;14.416;2023-01-24T13:17:41;33.90;;;14.77;;
66609;SDS011;53468;48.276;14.416;2023-01-24T13:23:22;32.28;;;16.30;;
66609;SDS011;53468;48.276;14.416;2023-01-24T13:28:36;33.55;;;15.57;;
66609;SDS011;53468;48.276;14.416;2023-01-24T13:33:46;32.92;;;17.02;;
66609;SDS011;53468;48.276;14.416;2023-01-24T13:38:51;30.52;;;16.02;;
66609;SDS011;53468;48.276;14.416;2023-01-24T13:43:56;32.13;;;16.85;;
66609;SDS011;53468;48.276;14.416;2023-01-24T13:49:01;33.95;;;16.90;;
66609;SDS011;53468;48.276;14.416;2023-01-24T13:54:04;36.20;;;17.40;;
66609;SDS011;53468;48.276;14.416;2023-01-24T13:59:18;31.92;;;16.40;;
66609;SDS011;53468;48.276;14.416;2023-01-24T14:04:27;36.80;;;16.85;;
66609;SDS011;53468;48.276;14.416;2023-01-24T14:09:41;36.53;;;16.27;;
66609;SDS011;53468;48.276;14.416;2023-01-24T14:15:00;40.92;;;17.73;;
66609;SDS011;53468;48.276;14.416;2023-01-24T14:20:15;36.23;;;16.40;;
66609;SDS011;53468;48.276;14.416;2023-01-24T14:25:29;36.30;;;17.48;;
66609;SDS011;53468;48.276;14.416;2023-01-24T14:30:44;36.40;;;16.13;;
66609;SDS011;53468;48.276;14.416;2023-01-24T14:35:53;39.67;;;16.73;;
66609;SDS011;53468;48.276;14.416;2023-01-24T14:41:00;41.30;;;18.15;;
66609;SDS011;53468;48.276;14.416;2023-01-24T14:46:08;38.70;;;16.80;;
66609;SDS011;53468;48.276;14.416;2023-01-24T14:51:15;40.92;;;18.98;;
66609;SDS011;53468;48.276;14.416;2023-01-24T14:56:19;41.50;;;19.38;;
66609;SDS011;53468;48.276;14.416;2023-01-24T15:01:24;40.00;;;18.08;;
66609;SDS011;53468;48.276;14.416;2023-01-24T15:06:29;36.83;;;17.48;;
66609;SDS011;53468;48.276;14.416;2023-01-24T15:11:33;38.17;;;17.17;;
66609;SDS011;53468;48.276;14.416;2023-01-24T15:16:38;39.40;;;18.15;;
66609;SDS011;53468;48.276;14.416;2023-01-24T15:21:50;40.10;;;17.63;;
66609;SDS011;53468;48.276;14.416;2023-01-24T15:26:54;36.58;;;17.58;;
66609;SDS011;53468;48.276;14.416;2023-01-24T15:31:56;36.05;;;16.05;;
66609;SDS011;53468;48.276;14.416;2023-01-24T15:37:00;40.10;;;17.75;;
66609;SDS011;53468;48.276;14.416;2023-01-24T15:42:05;41.55;;;17.38;;
66609;SDS011;53468;48.276;14.416;2023-01-24T15:47:24;37.17;;;15.95;;
66609;SDS011;53468;48.276;14.416;2023-01-24T15:52:45;33.95;;;17.30;;
66609;SDS011;53468;48.276;14.416;2023-01-24T15:57:47;41.88;;;16.73;;
66609;SDS011;53468;48.276;14.416;2023-01-24T16:02:49;43.55;;;18.98;;
66609;SDS011;53468;48.276;14.416;2023-01-24T16:07:53;47.47;;;20.45;;
66609;SDS011;53468;48.276;14.416;2023-01-24T16:12:55;43.42;;;18.50;;
66609;SDS011;53468;48.276;14.416;2023-01-24T16:17:57;41.53;;;16.77;;
66609;SDS011;53468;48.276;14.416;2023-01-24T16:23:01;43.10;;;19.17;;
66609;SDS011;53468;48.276;14.416;2023-01-24T16:28:03;45.25;;;19.00;;
66609;SDS011;53468;48.276;14.416;2023-01-24T16:33:06;41.35;;;17.92;;
66609;SDS011;53468;48.276;14.416;2023-01-24T16:38:10;49.22;;;19.08;;
66609;SDS011;53468;48.276;14.416;2023-01-24T16:43:15;42.15;;;19.00;;
66609;SDS011;53468;48.276;14.416;2023-01-24T16:48:21;51.95;;;21.30;;
66609;SDS011;53468;48.276;14.416;2023-01-24T16:53:25;39.38;;;18.70;;
66609;SDS011;53468;48.276;14.416;2023-01-24T16:58:27;42.25;;;19.20;;
66609;SDS011;53468;48.276;14.416;2023-01-24T17:03:30;54.33;;;19.73;;
66609;SDS011;53468;48.276;14.416;2023-01-24T17:08:34;47.30;;;19.65;;
66609;SDS011;53468;48.276;14.416;2023-01-24T17:13:37;39.45;;;19.23;;
66609;SDS011;53468;48.276;14.416;2023-01-24T17:18:39;41.78;;;18.77;;
66609;SDS011;53468;48.276;14.416;2023-01-24T17:23:43;41.63;;;19.55;;
66609;SDS011;53468;48.276;14.416;2023-01-24T17:28:45;43.08;;;20.17;;
66609;SDS011;53468;48.276;14.416;2023-01-24T17:33:47;51.25;;;20.13;;
66609;SDS011;53468;48.276;14.416;2023-01-24T17:38:52;49.08;;;18.90;;
66609;SDS011;53468;48.276;14.416;2023-01-24T17:43:54;47.28;;;19.45;;
66609;SDS011;53468;48.276;14.416;2023-01-24T17:48:56;55.83;;;21.80;;
66609;SDS011;53468;48.276;14.416;2023-01-24T17:54:00;54.42;;;21.38;;
66609;SDS011;53468;48.276;14.416;2023-01-24T17:59:02;45.60;;;19.75;;
66609;SDS011;53468;48.276;14.416;2023-01-24T18:04:04;47.17;;;20.20;;
66609;SDS011;53468;48.276;14.416;2023-01-24T18:09:07;47.35;;;20.00;;
66609;SDS011;53468;48.276;14.416;2023-01-24T18:14:09;44.17;;;19.48;;
66609;SDS011;53468;48.276;14.416;2023-01-24T18:19:12;47.33;;;18.30;;
66609;SDS011;53468;48.276;14.416;2023-01-24T18:24:15;38.67;;;18.10;;
66609;SDS011;53468;48.276;14.416;2023-01-24T18:29:17;39.67;;;17.48;;
66609;SDS011;53468;48.276;14.416;2023-01-24T18:34:19;50.03;;;20.00;;
66609;SDS011;53468;48.276;14.416;2023-01-24T18:39:25;38.67;;;17.13;;
66609;SDS011;53468;48.276;14.416;2023-01-24T18:44:28;47.28;;;20.70;;
66609;SDS011;53468;48.276;14.416;2023-01-24T18:49:30;46.85;;;20.17;;
66609;SDS011;53468;48.276;14.416;2023-01-24T18:54:33;45.22;;;20.27;;
66609;SDS011;53468;48.276;14.416;2023-01-24T18:59:36;45.05;;;19.48;;
66609;SDS011;53468;48.276;14.416;2023-01-24T19:04:39;43.58;;;20.17;;
66609;SDS011;53468;48.276;14.416;2023-01-24T19:09:42;44.50;;;19.25;;
66609;SDS011;53468;48.276;14.416;2023-01-24T19:14:45;45.53;;;18.77;;
66609;SDS011;53468;48.276;14.416;2023-01-24T19:19:47;40.25;;;18.75;;
66609;SDS011;53468;48.276;14.416;2023-01-24T19:24:53;41.95;;;18.15;;
66609;SDS011;53468;48.276;14.416;2023-01-24T19:29:55;43.35;;;19.13;;
66609;SDS011;53468;48.276;14.416;2023-01-24T19:34:58;43.17;;;18.27;;
66609;SDS011;53468;48.276;14.416;2023-01-24T19:40:05;39.70;;;17.20;;
66609;SDS011;53468;48.276;14.416;2023-01-24T19:45:08;39.85;;;18.15;;
66609;SDS011;53468;48.276;14.416;2023-01-24T19:50:11;40.85;;;17.10;;
66609;SDS011;53468;48.276;14.416;2023-01-24T19:55:16;40.03;;;16.75;;
66609;SDS011;53468;48.276;14.416;2023-01-24T20:00:18;37.55;;;17.15;;
66609;SDS011;53468;48.276;14.416;2023-01-24T20:05:20;40.22;;;17.40;;
66609;SDS011;53468;48.276;14.416;2023-01-24T20:10:24;36.40;;;17.48;;
66609;SDS011;53468;48.276;14.416;2023-01-24T20:15:27;38.75;;;18.50;;
66609;SDS011;53468;48.276;14.416;2023-01-24T20:20:29;33.25;;;16.52;;
66609;SDS011;53468;48.276;14.416;2023-01-24T20:25:34;36.55;;;16.35;;
66609;SDS011;53468;48.276;14.416;2023-01-24T20:30:36;36.92;;;18.45;;
66609;SDS011;53468;48.276;14.416;2023-01-24T20:35:38;38.47;;;16.60;;
66609;SDS011;53468;48.276;14.416;2023-01-24T20:40:42;37.22;;;17.77;;
66609;SDS011;53468;48.276;14.416;2023-01-24T20:45:44;38.17;;;16.48;;
66609;SDS011;53468;48.276;14.416;2023-01-24T20:50:53;35.33;;;17.05;;
66609;SDS011;53468;48.276;14.416;2023-01-24T20:55:57;33.50;;;15.73;;
66609;SDS011;53468;48.276;14.416;2023-01-24T21:01:01;41.28;;;16.40;;
66609;SDS011;53468;48.276;14.416;2023-01-24T21:06:08;32.65;;;15.77;;
66609;SDS011;53468;48.276;14.416;2023-01-24T21:11:16;40.60;;;17.63;;
66609;SDS011;53468;48.276;14.416;2023-01-24T21:16:20;32.90;;;16.85;;
66609;SDS011;53468;48.276;14.416;2023-01-24T21:21:24;36.40;;;16.92;;
66609;SDS011;53468;48.276;14.416;2023-01-24T21:26:31;34.80;;;16.27;;
66609;SDS011;53468;48.276;14.416;2023-01-24T21:31:33;34.28;;;15.65;;
66609;SDS011;53468;48.276;14.416;2023-01-24T21:36:35;32.67;;;15.90;;
66609;SDS011;53468;48.276;14.416;2023-01-24T21:41:40;32.70;;;16.17;;
66609;SDS011;53468;48.276;14.416;2023-01-24T21:46:56;33.55;;;16.85;;
66609;SDS011;53468;48.276;14.416;2023-01-24T21:51:59;29.08;;;14.20;;
66609;SDS011;53468;48.276;14.416;2023-01-24T21:57:04;28.48;;;14.13;;
66609;SDS011;53468;48.276;14.416;2023-01-24T22:02:27;23.23;;;11.38;;
66609;SDS011;53468;48.276;14.416;2023-01-24T22:07:30;22.35;;;11.10;;
66609;SDS011;53468;48.276;14.416;2023-01-24T22:12:34;18.42;;;9.23;;
66609;SDS011;53468;48.276;14.416;2023-01-24T22:17:37;20.40;;;10.15;;
66609;SDS011;53468;48.276;14.416;2023-01-24T22:28:09;24.77;;;11.00;;
66609;SDS011;53468;48.276;14.416;2023-01-24T22:33:17;25.38;;;12.38;;
66609;SDS011;53468;48.276;14.416;2023-01-24T22:38:19;26.08;;;11.55;;
66609;SDS011;53468;48.276;14.416;2023-01-24T22:43:27;26.48;;;11.55;;
66609;SDS011;53468;48.276;14.416;2023-01-24T22:48:29;24.83;;;11.02;;
66609;SDS011;53468;48.276;14.416;2023-01-24T22:53:31;23.60;;;10.70;;
66609;SDS011;53468;48.276;14.416;2023-01-24T22:58:35;20.58;;;10.35;;
66609;SDS011;53468;48.276;14.416;2023-01-24T23:03:37;23.05;;;11.43;;
66609;SDS011;53468;48.276;14.416;2023-01-24T23:08:39;25.80;;;12.73;;
66609;SDS011;53468;48.276;14.416;2023-01-24T23:13:43;22.25;;;11.75;;
66609;SDS011;53468;48.276;14.416;2023-01-24T23:19:05;30.95;;;13.93;;
66609;SDS011;53468;48.276;14.416;2023-01-24T23:24:46;23.20;;;11.68;;
66609;SDS011;53468;48.276;14.416;2023-01-24T23:35:26;26.52;;;13.52;;
66609;SDS011;53468;48.276;14.416;2023-01-24T23:40:28;28.75;;;13.38;;
66609;SDS011;53468;48.276;14.416;2023-01-24T23:45:31;32.47;;;13.90;;
66609;SDS011;53468;48.276;14.416;2023-01-24T23:50:33;26.90;;;11.93;;
66609;SDS011;53468;48.276;14.416;2023-01-24T23:55:35;21.40;;;11.68;;
